New Milford, CT (06776)

4:13 PM EDT on September 04, 2015 (GMT -0400)
McCarthy Observatory | | Change Station
CLOSE
Current Station
Personal Weather Station
Location: New Milford, CT
Elevation: 236 ft
Nearby Weather Stations

Elev 236 ft 41.53 °N, 73.43 °W | Updated 12 seconds ago

Overcast
Overcast
80.9 °F
Feels Like 83 °F
N
0.0
Wind Variable Wind from East
Gusts 0.0 mph

Today
High -- | Low -- °F
--% Chance of Precip.
Yesterday
High -- | Low -- °F
Precip. -- in
6:22 AM 7:22 PM
Waning Gibbous, 56% visible
Pressure 30.12 in
Visibility 10.0 miles
Clouds Scattered Clouds 4300 ft
Heat Index 83 °F
Dew Point 67 °F
Humidity 62%
Rainfall 0.00 in
Snow Depth Not available.
UV 4 out of 12
Pollen 8.20 out of 12
Air Quality Not available.
Flu Activity Not available.
METAR KDXR 041953Z 08006KT 10SM SCT043 27/16 A3013 RMK AO2 SLP200 T02670161
Pressure 30.12 in
Visibility 10.0 miles
Clouds Scattered Clouds 4300 ft
Heat Index 83 °F
Dew Point 67 °F
Humidity 62%
Rainfall 0.00 in
Snow Depth Not available.
UV 4 out of 12
Pollen 8.20 out of 12
Air Quality Not available.
Flu Activity Not available.
METAR KDXR 041953Z 08006KT 10SM SCT043 27/16 A3013 RMK AO2 SLP200 T02670161

10-Day Weather Forecast

×

Almanac

Astronomy

Sep. 04, 2015 Rise Set
Actual Time
Civil Twilight
Nautical Twilight
Astronomical Twilight
Moon
Length of Visible Light
Length of Day
Tomorrow will be .
, % of the Moon is Illuminated

Today's Extremes

State Highs State Lows

Community

WunderPhotos

Upload Photos

1,852,273 photos uploaded!

WunderBlogs® & News

Nearby

Air Quality

  Air Quality AQ Index Pollutant
Not available.

Snow Depth

Station Depth Elevation

Earthquake Activity

City Distance Mag. Time & Date
Minimum magnitude displayed is 2.5.

Coastal Water Temperatures

Place Temperature

Stations

Nearby Weather Stations

Station Location Temp. Windchill Dew Point Humidity Wind Precip. Elev Updated Type